sensor_id;sensor_type;location;lat;lon;timestamp;pressure;altitude;pressure_sealevel;temperature;humidity
11448;BME280;43755;49.736;8.734;2023-04-25T00:01:36;97190.41;;;6.44;100.00
11448;BME280;43755;49.736;8.734;2023-04-25T00:03:38;97186.16;;;6.41;100.00
11448;BME280;43755;49.736;8.734;2023-04-25T00:05:40;97188.88;;;6.38;100.00
11448;BME280;43755;49.736;8.734;2023-04-25T00:07:41;97187.81;;;6.42;100.00
11448;BME280;43755;49.736;8.734;2023-04-25T00:09:43;97195.56;;;6.47;100.00
11448;BME280;43755;49.736;8.734;2023-04-25T00:11:45;97190.16;;;6.50;100.00
11448;BME280;43755;49.736;8.734;2023-04-25T00:13:47;97195.72;;;6.42;100.00
11448;BME280;43755;49.736;8.734;2023-04-25T00:15:49;97189.53;;;6.43;100.00
11448;BME280;43755;49.736;8.734;2023-04-25T00:17:51;97189.31;;;6.49;100.00
11448;BME280;43755;49.736;8.734;2023-04-25T00:19:53;97184.19;;;6.46;100.00
11448;BME280;43755;49.736;8.734;2023-04-25T00:21:56;97187.69;;;6.47;100.00
11448;BME280;43755;49.736;8.734;2023-04-25T00:23:57;97187.72;;;6.45;100.00
11448;BME280;43755;49.736;8.734;2023-04-25T00:25:58;97187.78;;;6.44;100.00
11448;BME280;43755;49.736;8.734;2023-04-25T00:28:01;97181.66;;;6.43;100.00
11448;BME280;43755;49.736;8.734;2023-04-25T00:30:04;97189.63;;;6.42;100.00
11448;BME280;43755;49.736;8.734;2023-04-25T00:32:05;97184.63;;;6.36;100.00
11448;BME280;43755;49.736;8.734;2023-04-25T00:34:07;97185.56;;;6.33;100.00
11448;BME280;43755;49.736;8.734;2023-04-25T00:36:09;97187.53;;;6.28;100.00
11448;BME280;43755;49.736;8.734;2023-04-25T00:38:11;97181.13;;;6.35;100.00
11448;BME280;43755;49.736;8.734;2023-04-25T00:40:12;97183.00;;;6.32;100.00
11448;BME280;43755;49.736;8.734;2023-04-25T00:42:14;97177.69;;;6.33;100.00
11448;BME280;43755;49.736;8.734;2023-04-25T00:44:17;97178.56;;;6.34;100.00
11448;BME280;43755;49.736;8.734;2023-04-25T00:46:19;97174.94;;;6.36;100.00
11448;BME280;43755;49.736;8.734;2023-04-25T00:48:21;97182.72;;;6.39;100.00
11448;BME280;43755;49.736;8.734;2023-04-25T00:50:23;97186.50;;;6.32;100.00
11448;BME280;43755;49.736;8.734;2023-04-25T00:52:25;97179.47;;;6.33;100.00
11448;BME280;43755;49.736;8.734;2023-04-25T00:54:26;97176.78;;;6.34;100.00
11448;BME280;43755;49.736;8.734;2023-04-25T00:56:28;97176.72;;;6.36;100.00
11448;BME280;43755;49.736;8.734;2023-04-25T00:58:29;97169.53;;;6.41;100.00
11448;BME280;43755;49.736;8.734;2023-04-25T01:00:32;97168.66;;;6.40;100.00
11448;BME280;43755;49.736;8.734;2023-04-25T01:02:34;97170.38;;;6.41;100.00
11448;BME280;43755;49.736;8.734;2023-04-25T01:04:36;97167.66;;;6.43;100.00
11448;BME280;43755;49.736;8.734;2023-04-25T01:06:38;97164.06;;;6.45;100.00
11448;BME280;43755;49.736;8.734;2023-04-25T01:08:39;97166.16;;;6.37;100.00
11448;BME280;43755;49.736;8.734;2023-04-25T01:10:41;97167.50;;;6.47;100.00
11448;BME280;43755;49.736;8.734;2023-04-25T01:12:42;97172.16;;;6.41;100.00
11448;BME280;43755;49.736;8.734;2023-04-25T01:14:44;97169.38;;;6.44;100.00
11448;BME280;43755;49.736;8.734;2023-04-25T01:16:47;97173.53;;;6.49;100.00
11448;BME280;43755;49.736;8.734;2023-04-25T01:18:48;97171.06;;;6.46;100.00
11448;BME280;43755;49.736;8.734;2023-04-25T01:20:51;97167.91;;;6.37;100.00
11448;BME280;43755;49.736;8.734;2023-04-25T01:22:54;97170.53;;;6.37;100.00
11448;BME280;43755;49.736;8.734;2023-04-25T01:24:56;97166.22;;;6.36;100.00
11448;BME280;43755;49.736;8.734;2023-04-25T01:26:58;97162.75;;;6.35;100.00
11448;BME280;43755;49.736;8.734;2023-04-25T01:29:01;97162.00;;;6.32;100.00
11448;BME280;43755;49.736;8.734;2023-04-25T01:31:03;97165.66;;;6.28;100.00
11448;BME280;43755;49.736;8.734;2023-04-25T01:33:07;97165.72;;;6.26;100.00
11448;BME280;43755;49.736;8.734;2023-04-25T01:35:11;97171.81;;;6.27;100.00
11448;BME280;43755;49.736;8.734;2023-04-25T01:37:12;97164.75;;;6.29;100.00
11448;BME280;43755;49.736;8.734;2023-04-25T01:39:16;97164.69;;;6.30;100.00
11448;BME280;43755;49.736;8.734;2023-04-25T01:41:18;97165.47;;;6.32;100.00
11448;BME280;43755;49.736;8.734;2023-04-25T01:43:20;97170.72;;;6.32;100.00
11448;BME280;43755;49.736;8.734;2023-04-25T01:45:21;97168.16;;;6.31;100.00
11448;BME280;43755;49.736;8.734;2023-04-25T01:47:23;97175.34;;;6.26;100.00
11448;BME280;43755;49.736;8.734;2023-04-25T01:49:24;97166.31;;;6.33;100.00
11448;BME280;43755;49.736;8.734;2023-04-25T01:51:26;97173.53;;;6.28;100.00
11448;BME280;43755;49.736;8.734;2023-04-25T01:53:27;97163.88;;;6.28;100.00
11448;BME280;43755;49.736;8.734;2023-04-25T01:55:30;97172.50;;;6.32;100.00
11448;BME280;43755;49.736;8.734;2023-04-25T01:57:32;97161.06;;;6.33;100.00
11448;BME280;43755;49.736;8.734;2023-04-25T01:59:33;97170.09;;;6.26;100.00
11448;BME280;43755;49.736;8.734;2023-04-25T02:01:35;97161.50;;;6.22;100.00
11448;BME280;43755;49.736;8.734;2023-04-25T02:03:36;97159.69;;;6.24;100.00
11448;BME280;43755;49.736;8.734;2023-04-25T02:05:38;97168.34;;;6.26;100.00
11448;BME280;43755;49.736;8.734;2023-04-25T02:07:40;97163.66;;;6.34;100.00
11448;BME280;43755;49.736;8.734;2023-04-25T02:09:41;97162.78;;;6.34;100.00
11448;BME280;43755;49.736;8.734;2023-04-25T02:11:45;97163.84;;;6.30;100.00
11448;BME280;43755;49.736;8.734;2023-04-25T02:13:46;97161.25;;;6.28;100.00
11448;BME280;43755;49.736;8.734;2023-04-25T02:15:47;97160.34;;;6.29;100.00
11448;BME280;43755;49.736;8.734;2023-04-25T02:17:49;97162.16;;;6.27;100.00
11448;BME280;43755;49.736;8.734;2023-04-25T02:19:52;97162.13;;;6.29;100.00
11448;BME280;43755;49.736;8.734;2023-04-25T02:21:54;97155.88;;;6.31;100.00
11448;BME280;43755;49.736;8.734;2023-04-25T02:23:57;97154.97;;;6.32;100.00
11448;BME280;43755;49.736;8.734;2023-04-25T02:25:58;97154.06;;;6.33;100.00
11448;BME280;43755;49.736;8.734;2023-04-25T02:28:01;97156.81;;;6.30;100.00
11448;BME280;43755;49.736;8.734;2023-04-25T02:30:04;97156.00;;;6.28;100.00
11448;BME280;43755;49.736;8.734;2023-04-25T02:32:06;97150.56;;;6.33;100.00
11448;BME280;43755;49.736;8.734;2023-04-25T02:34:08;97145.31;;;6.33;100.00
11448;BME280;43755;49.736;8.734;2023-04-25T02:36:09;97147.13;;;6.31;100.00
11448;BME280;43755;49.736;8.734;2023-04-25T02:38:11;97146.03;;;6.36;100.00
11448;BME280;43755;49.736;8.734;2023-04-25T02:40:12;97150.31;;;6.39;100.00
11448;BME280;43755;49.736;8.734;2023-04-25T02:42:14;97145.94;;;6.39;100.00
11448;BME280;43755;49.736;8.734;2023-04-25T02:44:16;97146.78;;;6.40;100.00
11448;BME280;43755;49.736;8.734;2023-04-25T02:46:18;97144.16;;;6.40;100.00
11448;BME280;43755;49.736;8.734;2023-04-25T02:48:19;97147.69;;;6.39;100.00
11448;BME280;43755;49.736;8.734;2023-04-25T02:50:21;97144.97;;;6.42;100.00
11448;BME280;43755;49.736;8.734;2023-04-25T02:52:22;97150.22;;;6.42;100.00
11448;BME280;43755;49.736;8.734;2023-04-25T02:54:24;97150.28;;;6.40;100.00
11448;BME280;43755;49.736;8.734;2023-04-25T02:56:25;97142.41;;;6.40;100.00
11448;BME280;43755;49.736;8.734;2023-04-25T02:58:27;97145.06;;;6.39;100.00
11448;BME280;43755;49.736;8.734;2023-04-25T03:00:30;97152.09;;;6.38;100.00
11448;BME280;43755;49.736;8.734;2023-04-25T03:02:31;97150.53;;;6.34;100.00
11448;BME280;43755;49.736;8.734;2023-04-25T03:04:33;97149.47;;;6.38;100.00
11448;BME280;43755;49.736;8.734;2023-04-25T03:06:34;97147.09;;;6.32;100.00
11448;BME280;43755;49.736;8.734;2023-04-25T03:08:35;97147.13;;;6.31;100.00
11448;BME280;43755;49.736;8.734;2023-04-25T03:10:38;97149.72;;;6.32;100.00
11448;BME280;43755;49.736;8.734;2023-04-25T03:12:39;97150.47;;;6.36;100.00
11448;BME280;43755;49.736;8.734;2023-04-25T03:14:41;97145.25;;;6.34;100.00
11448;BME280;43755;49.736;8.734;2023-04-25T03:16:44;97147.88;;;6.34;100.00
11448;BME280;43755;49.736;8.734;2023-04-25T03:18:46;97145.56;;;6.27;100.00
11448;BME280;43755;49.736;8.734;2023-04-25T03:20:47;97152.47;;;6.29;100.00
11448;BME280;43755;49.736;8.734;2023-04-25T03:22:48;97149.72;;;6.32;100.00
11448;BME280;43755;49.736;8.734;2023-04-25T03:24:50;97152.16;;;6.37;100.00
11448;BME280;43755;49.736;8.734;2023-04-25T03:26:51;97150.31;;;6.39;100.00
11448;BME280;43755;49.736;8.734;2023-04-25T03:28:53;97158.16;;;6.40;100.00
11448;BME280;43755;49.736;8.734;2023-04-25T03:30:54;97150.22;;;6.42;100.00
11448;BME280;43755;49.736;8.734;2023-04-25T03:32:57;97152.00;;;6.41;100.00
11448;BME280;43755;49.736;8.734;2023-04-25T03:34:59;97149.53;;;6.37;100.00
11448;BME280;43755;49.736;8.734;2023-04-25T03:37:00;97149.53;;;6.37;100.00
11448;BME280;43755;49.736;8.734;2023-04-25T03:39:02;97152.91;;;6.40;100.00
11448;BME280;43755;49.736;8.734;2023-04-25T03:41:03;97152.84;;;6.42;100.00
11448;BME280;43755;49.736;8.734;2023-04-25T03:43:05;97154.63;;;6.41;100.00
11448;BME280;43755;49.736;8.734;2023-04-25T03:45:07;97155.53;;;6.40;100.00
11448;BME280;43755;49.736;8.734;2023-04-25T03:47:09;97147.69;;;6.39;100.00
11448;BME280;43755;49.736;8.734;2023-04-25T03:49:12;97145.88;;;6.41;100.00
11448;BME280;43755;49.736;8.734;2023-04-25T03:51:13;97153.75;;;6.41;100.00
11448;BME280;43755;49.736;8.734;2023-04-25T03:53:14;97157.16;;;6.43;100.00
11448;BME280;43755;49.736;8.734;2023-04-25T03:55:16;97160.84;;;6.39;100.00
11448;BME280;43755;49.736;8.734;2023-04-25T03:57:17;97158.16;;;6.40;100.00
11448;BME280;43755;49.736;8.734;2023-04-25T03:59:18;97162.56;;;6.40;100.00
11448;BME280;43755;49.736;8.734;2023-04-25T04:01:20;97158.94;;;6.42;100.00
11448;BME280;43755;49.736;8.734;2023-04-25T04:03:21;97156.31;;;6.42;100.00
11448;BME280;43755;49.736;8.734;2023-04-25T04:05:24;97163.28;;;6.43;100.00
11448;BME280;43755;49.736;8.734;2023-04-25T04:07:25;97158.03;;;6.43;100.00
11448;BME280;43755;49.736;8.734;2023-04-25T04:09:27;97159.75;;;6.44;100.00
11448;BME280;43755;49.736;8.734;2023-04-25T04:11:28;97165.19;;;6.40;100.00
11448;BME280;43755;49.736;8.734;2023-04-25T04:13:31;97163.47;;;6.39;100.00
11448;BME280;43755;49.736;8.734;2023-04-25T04:15:32;97168.00;;;6.35;100.00
11448;BME280;43755;49.736;8.734;2023-04-25T04:17:34;97172.44;;;6.33;100.00
11448;BME280;43755;49.736;8.734;2023-04-25T04:19:35;97171.53;;;6.34;100.00
11448;BME280;43755;49.736;8.734;2023-04-25T04:21:38;97179.41;;;6.34;100.00
11448;BME280;43755;49.736;8.734;2023-04-25T04:23:39;97176.16;;;6.28;100.00
11448;BME280;43755;49.736;8.734;2023-04-25T04:25:41;97176.97;;;6.30;100.00
11448;BME280;43755;49.736;8.734;2023-04-25T04:27:43;97176.84;;;6.33;100.00
11448;BME280;43755;49.736;8.734;2023-04-25T04:29:45;97187.25;;;6.36;100.00
11448;BME280;43755;49.736;8.734;2023-04-25T04:31:47;97184.47;;;6.39;100.00
11448;BME280;43755;49.736;8.734;2023-04-25T04:33:49;97173.91;;;6.40;100.00
11448;BME280;43755;49.736;8.734;2023-04-25T04:35:51;97176.53;;;6.40;100.00
11448;BME280;43755;49.736;8.734;2023-04-25T04:37:54;97178.31;;;6.40;100.00
11448;BME280;43755;49.736;8.734;2023-04-25T04:39:56;97177.56;;;6.36;100.00
11448;BME280;43755;49.736;8.734;2023-04-25T04:41:57;97182.72;;;6.39;100.00
11448;BME280;43755;49.736;8.734;2023-04-25T04:43:59;97183.63;;;6.38;100.00
11448;BME280;43755;49.736;8.734;2023-04-25T04:46:01;97185.34;;;6.39;100.00
11448;BME280;43755;49.736;8.734;2023-04-25T04:48:05;97186.88;;;6.45;100.00
11448;BME280;43755;49.736;8.734;2023-04-25T04:50:07;97185.91;;;6.47;100.00
11448;BME280;43755;49.736;8.734;2023-04-25T04:52:09;97193.78;;;6.47;100.00
11448;BME280;43755;49.736;8.734;2023-04-25T04:54:12;97191.94;;;6.49;100.00
11448;BME280;43755;49.736;8.734;2023-04-25T04:56:13;97192.69;;;6.53;100.00
11448;BME280;43755;49.736;8.734;2023-04-25T04:58:15;97200.50;;;6.54;100.00
11448;BME280;43755;49.736;8.734;2023-04-25T05:00:17;97197.13;;;6.51;100.00
11448;BME280;43755;49.736;8.734;2023-04-25T05:02:18;97201.53;;;6.50;100.00
11448;BME280;43755;49.736;8.734;2023-04-25T05:04:20;97201.44;;;6.53;100.00
11448;BME280;43755;49.736;8.734;2023-04-25T05:06:21;97199.63;;;6.54;100.00
11448;BME280;43755;49.736;8.734;2023-04-25T05:08:22;97205.69;;;6.56;100.00
11448;BME280;43755;49.736;8.734;2023-04-25T05:10:25;97211.09;;;6.53;100.00
11448;BME280;43755;49.736;8.734;2023-04-25T05:12:27;97206.59;;;6.55;100.00
11448;BME280;43755;49.736;8.734;2023-04-25T05:14:28;97201.28;;;6.56;100.00
11448;BME280;43755;49.736;8.734;2023-04-25T05:16:30;97207.41;;;6.57;100.00
11448;BME280;43755;49.736;8.734;2023-04-25T05:18:31;97204.41;;;6.44;100.00
11448;BME280;43755;49.736;8.734;2023-04-25T05:20:33;97211.59;;;6.39;100.00
11448;BME280;43755;49.736;8.734;2023-04-25T05:22:34;97216.97;;;6.36;100.00
11448;BME280;43755;49.736;8.734;2023-04-25T05:24:36;97222.31;;;6.35;100.00
11448;BME280;43755;49.736;8.734;2023-04-25T05:26:39;97221.25;;;6.39;100.00
11448;BME280;43755;49.736;8.734;2023-04-25T05:28:40;97229.28;;;6.36;100.00
11448;BME280;43755;49.736;8.734;2023-04-25T05:30:42;97215.09;;;6.40;100.00
11448;BME280;43755;49.736;8.734;2023-04-25T05:32:43;97222.78;;;6.44;100.00
11448;BME280;43755;49.736;8.734;2023-04-25T05:34:45;97228.22;;;6.40;100.00
11448;BME280;43755;49.736;8.734;2023-04-25T05:36:46;97226.69;;;6.34;100.00
11448;BME280;43755;49.736;8.734;2023-04-25T05:38:49;97227.88;;;6.26;100.00
11448;BME280;43755;49.736;8.734;2023-04-25T05:40:50;97230.50;;;6.26;100.00
11448;BME280;43755;49.736;8.734;2023-04-25T05:42:53;97234.34;;;6.17;100.00
11448;BME280;43755;49.736;8.734;2023-04-25T05:44:54;97233.31;;;6.21;100.00
11448;BME280;43755;49.736;8.734;2023-04-25T05:46:55;97238.47;;;6.24;100.00
11448;BME280;43755;49.736;8.734;2023-04-25T05:48:57;97243.88;;;6.20;100.00
11448;BME280;43755;49.736;8.734;2023-04-25T05:50:58;97238.63;;;6.20;100.00
11448;BME280;43755;49.736;8.734;2023-04-25T05:53:00;97243.78;;;6.23;100.00
11448;BME280;43755;49.736;8.734;2023-04-25T05:55:01;97252.34;;;6.28;100.00
11448;BME280;43755;49.736;8.734;2023-04-25T05:57:03;97240.09;;;6.27;100.00
11448;BME280;43755;49.736;8.734;2023-04-25T05:59:05;97248.22;;;6.21;100.00
11448;BME280;43755;49.736;8.734;2023-04-25T06:01:07;97253.66;;;6.16;100.00
11448;BME280;43755;49.736;8.734;2023-04-25T06:03:09;97250.63;;;6.03;100.00
11448;BME280;43755;49.736;8.734;2023-04-25T06:05:10;97257.91;;;5.95;100.00
11448;BME280;43755;49.736;8.734;2023-04-25T06:07:11;97256.69;;;6.05;100.00
11448;BME280;43755;49.736;8.734;2023-04-25T06:09:13;97259.06;;;6.11;100.00
11448;BME280;43755;49.736;8.734;2023-04-25T06:11:14;97263.16;;;6.18;100.00
11448;BME280;43755;49.736;8.734;2023-04-25T06:13:16;97255.38;;;6.17;100.00
11448;BME280;43755;49.736;8.734;2023-04-25T06:15:19;97260.66;;;6.15;100.00
11448;BME280;43755;49.736;8.734;2023-04-25T06:17:20;97257.81;;;6.22;100.00
11448;BME280;43755;49.736;8.734;2023-04-25T06:19:22;97263.88;;;6.24;100.00
11448;BME280;43755;49.736;8.734;2023-04-25T06:21:23;97257.13;;;6.40;100.00
11448;BME280;43755;49.736;8.734;2023-04-25T06:23:24;97262.03;;;6.49;100.00
11448;BME280;43755;49.736;8.734;2023-04-25T06:25:26;97269.56;;;6.58;100.00
11448;BME280;43755;49.736;8.734;2023-04-25T06:27:27;97263.41;;;6.81;100.00
11448;BME280;43755;49.736;8.734;2023-04-25T06:29:28;97261.88;;;6.97;100.00
11448;BME280;43755;49.736;8.734;2023-04-25T06:31:31;97262.28;;;7.08;100.00
11448;BME280;43755;49.736;8.734;2023-04-25T06:33:33;97262.63;;;7.01;100.00
11448;BME280;43755;49.736;8.734;2023-04-25T06:35:35;97261.16;;;6.93;100.00
11448;BME280;43755;49.736;8.734;2023-04-25T06:37:36;97264.66;;;6.94;100.00
11448;BME280;43755;49.736;8.734;2023-04-25T06:39:37;97268.84;;;6.98;100.00
11448;BME280;43755;49.736;8.734;2023-04-25T06:41:39;97279.06;;;7.06;100.00
11448;BME280;43755;49.736;8.734;2023-04-25T06:43:40;97273.88;;;7.04;100.00
11448;BME280;43755;49.736;8.734;2023-04-25T06:45:42;97259.38;;;7.16;100.00
11448;BME280;43755;49.736;8.734;2023-04-25T06:47:45;97270.84;;;7.13;100.00
11448;BME280;43755;49.736;8.734;2023-04-25T06:49:46;97262.59;;;7.22;100.00
11448;BME280;43755;49.736;8.734;2023-04-25T06:51:47;97276.03;;;6.94;100.00
11448;BME280;43755;49.736;8.734;2023-04-25T06:53:49;97269.94;;;6.92;100.00
11448;BME280;43755;49.736;8.734;2023-04-25T06:55:50;97274.41;;;6.90;100.00
11448;BME280;43755;49.736;8.734;2023-04-25T06:57:51;97267.38;;;6.91;100.00
11448;BME280;43755;49.736;8.734;2023-04-25T06:59:53;97272.63;;;6.91;100.00
11448;BME280;43755;49.736;8.734;2023-04-25T07:01:54;97288.13;;;6.77;100.00
11448;BME280;43755;49.736;8.734;2023-04-25T07:03:57;97285.34;;;6.80;100.00
11448;BME280;43755;49.736;8.734;2023-04-25T07:05:58;97280.66;;;6.88;100.00
11448;BME280;43755;49.736;8.734;2023-04-25T07:08:00;97284.25;;;6.85;100.00
11448;BME280;43755;49.736;8.734;2023-04-25T07:10:01;97285.34;;;6.80;100.00
11448;BME280;43755;49.736;8.734;2023-04-25T07:12:03;97283.78;;;6.97;100.00
11448;BME280;43755;49.736;8.734;2023-04-25T07:14:05;97283.78;;;6.97;100.00
11448;BME280;43755;49.736;8.734;2023-04-25T07:16:06;97282.97;;;7.17;100.00
11448;BME280;43755;49.736;8.734;2023-04-25T07:18:08;97276.22;;;7.54;100.00
11448;BME280;43755;49.736;8.734;2023-04-25T07:20:10;97287.19;;;7.83;100.00
11448;BME280;43755;49.736;8.734;2023-04-25T07:22:12;97286.19;;;7.86;100.00
11448;BME280;43755;49.736;8.734;2023-04-25T07:24:13;97286.53;;;7.58;100.00
11448;BME280;43755;49.736;8.734;2023-04-25T07:26:15;97281.06;;;7.63;100.00
11448;BME280;43755;49.736;8.734;2023-04-25T07:28:16;97285.00;;;7.73;100.00
11448;BME280;43755;49.736;8.734;2023-04-25T07:30:18;97283.09;;;7.97;100.00
11448;BME280;43755;49.736;8.734;2023-04-25T07:32:19;97284.44;;;7.87;100.00
11448;BME280;43755;49.736;8.734;2023-04-25T07:34:20;97286.38;;;7.61;100.00
11448;BME280;43755;49.736;8.734;2023-04-25T07:36:23;97297.16;;;7.55;100.00
11448;BME280;43755;49.736;8.734;2023-04-25T07:38:26;97295.47;;;7.74;100.00
11448;BME280;43755;49.736;8.734;2023-04-25T07:40:28;97298.63;;;7.62;100.00
11448;BME280;43755;49.736;8.734;2023-04-25T07:42:29;97297.56;;;7.66;100.00
11448;BME280;43755;49.736;8.734;2023-04-25T07:44:30;97295.03;;;7.43;100.00
11448;BME280;43755;49.736;8.734;2023-04-25T07:46:32;97305.16;;;7.54;100.00
11448;BME280;43755;49.736;8.734;2023-04-25T07:48:34;97306.38;;;7.45;100.00
11448;BME280;43755;49.736;8.734;2023-04-25T07:50:35;97305.50;;;7.24;100.00
11448;BME280;43755;49.736;8.734;2023-04-25T07:52:38;97309.31;;;7.37;100.00
11448;BME280;43755;49.736;8.734;2023-04-25T07:54:40;97312.06;;;7.56;100.00
11448;BME280;43755;49.736;8.734;2023-04-25T07:56:41;97318.22;;;7.55;100.00
11448;BME280;43755;49.736;8.734;2023-04-25T07:58:43;97320.09;;;7.53;100.00
11448;BME280;43755;49.736;8.734;2023-04-25T08:00:44;97322.13;;;7.47;100.00
11448;BME280;43755;49.736;8.734;2023-04-25T08:02:46;97320.41;;;7.46;100.00
11448;BME280;43755;49.736;8.734;2023-04-25T08:04:47;97327.06;;;7.32;100.00
11448;BME280;43755;49.736;8.734;2023-04-25T08:06:49;97326.78;;;7.18;100.00
11448;BME280;43755;49.736;8.734;2023-04-25T08:08:52;97333.97;;;7.13;100.00
11448;BME280;43755;49.736;8.734;2023-04-25T08:10:53;97340.34;;;7.08;100.00
11448;BME280;43755;49.736;8.734;2023-04-25T08:12:55;97337.28;;;6.96;100.00
11448;BME280;43755;49.736;8.734;2023-04-25T08:14:56;97335.19;;;6.83;100.00
11448;BME280;43755;49.736;8.734;2023-04-25T08:16:58;97338.03;;;7.00;100.00
11448;BME280;43755;49.736;8.734;2023-04-25T08:18:59;97350.06;;;7.06;100.00
11448;BME280;43755;49.736;8.734;2023-04-25T08:21:01;97356.19;;;7.06;100.00
11448;BME280;43755;49.736;8.734;2023-04-25T08:23:02;97359.78;;;7.25;100.00
11448;BME280;43755;49.736;8.734;2023-04-25T08:25:06;97359.97;;;7.43;100.00
11448;BME280;43755;49.736;8.734;2023-04-25T08:27:07;97361.00;;;7.60;100.00
11448;BME280;43755;49.736;8.734;2023-04-25T08:29:09;97363.81;;;7.77;100.00
11448;BME280;43755;49.736;8.734;2023-04-25T08:31:10;97361.50;;;7.90;100.00
11448;BME280;43755;49.736;8.734;2023-04-25T08:33:11;97368.28;;;7.96;100.00
11448;BME280;43755;49.736;8.734;2023-04-25T08:35:13;97364.22;;;8.09;100.00
11448;BME280;43755;49.736;8.734;2023-04-25T08:37:14;97373.44;;;7.99;100.00
11448;BME280;43755;49.736;8.734;2023-04-25T08:39:16;97380.44;;;7.78;100.00
11448;BME280;43755;49.736;8.734;2023-04-25T08:41:19;97369.41;;;7.90;100.00
11448;BME280;43755;49.736;8.734;2023-04-25T08:43:23;97370.91;;;7.75;100.00
11448;BME280;43755;49.736;8.734;2023-04-25T08:45:26;97374.78;;;7.67;100.00
11448;BME280;43755;49.736;8.734;2023-04-25T08:47:29;97369.91;;;7.58;100.00
11448;BME280;43755;49.736;8.734;2023-04-25T08:49:31;97378.09;;;7.50;100.00
11448;BME280;43755;49.736;8.734;2023-04-25T08:51:34;97377.59;;;7.62;100.00
11448;BME280;43755;49.736;8.734;2023-04-25T08:53:38;97388.63;;;7.50;100.00
11448;BME280;43755;49.736;8.734;2023-04-25T08:55:43;97385.75;;;7.56;100.00
11448;BME280;43755;49.736;8.734;2023-04-25T08:57:47;97385.84;;;7.75;100.00
11448;BME280;43755;49.736;8.734;2023-04-25T08:59:48;97395.63;;;7.93;100.00
11448;BME280;43755;49.736;8.734;2023-04-25T09:01:50;97388.47;;;8.17;100.00
11448;BME280;43755;49.736;8.734;2023-04-25T09:03:52;97388.81;;;8.50;100.00
11448;BME280;43755;49.736;8.734;2023-04-25T09:05:53;97397.50;;;8.52;100.00
11448;BME280;43755;49.736;8.734;2023-04-25T09:07:56;97392.13;;;8.74;100.00
11448;BME280;43755;49.736;8.734;2023-04-25T09:09:58;97403.78;;;8.88;100.00
11448;BME280;43755;49.736;8.734;2023-04-25T09:12:02;97401.91;;;8.90;100.00
11448;BME280;43755;49.736;8.734;2023-04-25T09:14:15;97394.78;;;8.92;100.00
11448;BME280;43755;49.736;8.734;2023-04-25T09:16:16;97406.78;;;8.99;100.00
11448;BME280;43755;49.736;8.734;2023-04-25T09:18:22;97404.47;;;8.92;100.00
11448;BME280;43755;49.736;8.734;2023-04-25T09:20:25;97410.19;;;9.20;100.00
11448;BME280;43755;49.736;8.734;2023-04-25T09:22:27;97408.56;;;8.99;94.20
11448;BME280;43755;49.736;8.734;2023-04-25T09:24:32;97410.28;;;9.19;90.66
11448;BME280;43755;49.736;8.734;2023-04-25T09:26:34;97411.63;;;9.09;94.74
11448;BME280;43755;49.736;8.734;2023-04-25T09:28:35;97416.03;;;9.08;100.00
11448;BME280;43755;49.736;8.734;2023-04-25T09:30:39;97410.75;;;9.08;100.00
11448;BME280;43755;49.736;8.734;2023-04-25T09:32:42;97421.19;;;9.30;100.00
11448;BME280;43755;49.736;8.734;2023-04-25T09:34:45;97423.03;;;9.28;100.00
11448;BME280;43755;49.736;8.734;2023-04-25T09:36:48;97431.03;;;9.26;100.00
11448;BME280;43755;49.736;8.734;2023-04-25T09:38:49;97432.44;;;9.15;100.00
11448;BME280;43755;49.736;8.734;2023-04-25T09:40:51;97435.53;;;9.06;100.00
11448;BME280;43755;49.736;8.734;2023-04-25T09:42:53;97443.50;;;9.04;100.00
11448;BME280;43755;49.736;8.734;2023-04-25T09:44:55;97441.38;;;9.12;100.00
11448;BME280;43755;49.736;8.734;2023-04-25T09:46:58;97442.44;;;9.08;100.00
11448;BME280;43755;49.736;8.734;2023-04-25T09:49:06;97443.94;;;8.95;100.00
11448;BME280;43755;49.736;8.734;2023-04-25T09:51:09;97444.38;;;9.04;100.00
11448;BME280;43755;49.736;8.734;2023-04-25T09:53:11;97445.66;;;9.15;100.00
11448;BME280;43755;49.736;8.734;2023-04-25T09:55:12;97454.00;;;9.24;100.00
11448;BME280;43755;49.736;8.734;2023-04-25T09:57:15;97444.09;;;9.48;100.00
11448;BME280;43755;49.736;8.734;2023-04-25T09:59:19;97455.28;;;9.34;92.23
11448;BME280;43755;49.736;8.734;2023-04-25T10:01:21;97453.00;;;9.45;94.14
11448;BME280;43755;49.736;8.734;2023-04-25T10:03:26;97452.78;;;9.69;96.51
11448;BME280;43755;49.736;8.734;2023-04-25T10:05:29;97457.41;;;9.82;95.64
11448;BME280;43755;49.736;8.734;2023-04-25T10:07:33;97453.84;;;9.83;90.71
11448;BME280;43755;49.736;8.734;2023-04-25T10:09:39;97460.34;;;9.58;94.64
11448;BME280;43755;49.736;8.734;2023-04-25T10:11:41;97460.72;;;9.50;85.35
11448;BME280;43755;49.736;8.734;2023-04-25T10:13:42;97466.63;;;9.55;93.34
11448;BME280;43755;49.736;8.734;2023-04-25T10:15:44;97466.28;;;9.63;100.00
11448;BME280;43755;49.736;8.734;2023-04-25T10:17:47;97468.63;;;9.69;100.00
11448;BME280;43755;49.736;8.734;2023-04-25T10:19:51;97472.13;;;9.51;82.75
11448;BME280;43755;49.736;8.734;2023-04-25T10:21:55;97470.28;;;9.71;88.18
11448;BME280;43755;49.736;8.734;2023-04-25T10:23:59;97471.88;;;9.93;89.01
11448;BME280;43755;49.736;8.734;2023-04-25T10:26:01;97473.88;;;9.88;92.31
11448;BME280;43755;49.736;8.734;2023-04-25T10:28:03;97469.13;;;9.77;86.85
11448;BME280;43755;49.736;8.734;2023-04-25T10:30:07;97475.06;;;9.44;94.69
11448;BME280;43755;49.736;8.734;2023-04-25T10:32:10;97481.81;;;9.31;91.90
11448;BME280;43755;49.736;8.734;2023-04-25T10:34:11;97479.41;;;8.88;91.75
11448;BME280;43755;49.736;8.734;2023-04-25T10:36:17;97479.16;;;8.74;100.00
11448;BME280;43755;49.736;8.734;2023-04-25T10:38:19;97482.91;;;8.68;93.70
11448;BME280;43755;49.736;8.734;2023-04-25T10:40:21;97483.19;;;8.62;98.68
11448;BME280;43755;49.736;8.734;2023-04-25T10:42:23;97488.13;;;8.70;98.88
11448;BME280;43755;49.736;8.734;2023-04-25T10:44:26;97481.53;;;8.80;100.00
11448;BME280;43755;49.736;8.734;2023-04-25T10:46:28;97484.75;;;8.86;100.00